Time;durP1;ratioP1;P1;durP2;ratioP2;P2;SDS_P1;SDS_P2;PMS_P1;PMS_P2;Temp;Humidity;BMP_temperature;BMP_pressure;BME280_temperature;BME280_humidity;BME280_pressure;Samples;Min_cycle;Max_cycle;Signal;HPM_P1;HPM_P2
2021/08/11 00:00:35;;;;;;;8.75;4.93;;;19.20;4.90;;;;;;5111480;27;20425;-75
2021/08/11 00:03:23;;;;;;;8.73;4.88;;;19.10;6.10;;;;;;5114338;27;20115;-74
2021/08/11 00:06:12;;;;;;;8.05;4.50;;;19.20;5.70;;;;;;5103429;27;20039;-75
2021/08/11 00:09:02;;;;;;;8.90;4.85;;;19.20;5.70;;;;;;5106347;27;20116;-75
2021/08/11 00:11:52;;;;;;;8.13;5.60;;;19.00;6.40;;;;;;5115005;27;20046;-74
2021/08/11 00:14:41;;;;;;;7.55;5.00;;;19.10;6.50;;;;;;5118470;27;20046;-75
2021/08/11 00:17:30;;;;;;;7.07;4.93;;;18.90;6.90;;;;;;5111521;27;20070;-74
2021/08/11 00:20:18;;;;;;;12.32;5.43;;;18.80;7.80;;;;;;5111757;27;20547;-75
2021/08/11 00:23:07;;;;;;;10.68;5.45;;;18.90;7.90;;;;;;5108690;27;20044;-75
2021/08/11 00:25:56;;;;;;;8.45;5.38;;;18.80;8.60;;;;;;5110609;27;20942;-75
2021/08/11 00:28:46;;;;;;;9.45;5.15;;;18.80;8.50;;;;;;5095065;27;20062;-75
2021/08/11 00:31:34;;;;;;;6.53;4.55;;;18.70;9.10;;;;;;5108133;27;20419;-74
2021/08/11 00:34:23;;;;;;;7.65;4.95;;;18.70;9.40;;;;;;5109676;27;20043;-75
2021/08/11 00:37:11;;;;;;;8.73;5.15;;;18.70;9.50;;;;;;5105563;27;20039;-75
2021/08/11 00:40:04;;;;;;;8.73;5.03;;;18.60;10.10;;;;;;5085293;27;20043;-75
2021/08/11 00:42:56;;;;;;;7.82;5.97;;;18.70;10.00;;;;;;5097025;27;20499;-75
2021/08/11 00:45:46;;;;;;;7.88;4.93;;;18.60;10.00;;;;;;5087867;27;20052;-75
2021/08/11 00:48:36;;;;;;;8.48;5.13;;;18.60;10.70;;;;;;5073712;28;20043;-76
2021/08/11 00:51:25;;;;;;;9.50;5.43;;;18.50;11.60;;;;;;5090102;27;20101;-76
2021/08/11 00:54:18;;;;;;;9.02;5.60;;;18.40;11.80;;;;;;5094790;27;20047;-75
2021/08/11 00:57:08;;;;;;;10.68;4.97;;;18.40;12.60;;;;;;5106662;27;20756;-75
2021/08/11 00:59:58;;;;;;;10.30;5.20;;;18.30;13.10;;;;;;5089252;27;20047;-75
2021/08/11 01:02:48;;;;;;;8.43;5.05;;;18.30;13.50;;;;;;5094887;27;20043;-75
2021/08/11 01:05:41;;;;;;;7.88;5.65;;;18.40;13.50;;;;;;5093804;27;20062;-75
2021/08/11 01:08:31;;;;;;;10.13;5.82;;;18.40;13.50;;;;;;5109487;27;20514;-75
2021/08/11 01:11:22;;;;;;;8.63;5.40;;;18.30;13.50;;;;;;5095319;27;20082;-76
2021/08/11 01:14:13;;;;;;;8.35;5.65;;;18.30;13.50;;;;;;5091853;27;20054;-75
2021/08/11 01:17:02;;;;;;;10.02;5.55;;;18.40;13.60;;;;;;5084484;27;20043;-76
2021/08/11 01:19:52;;;;;;;9.75;5.82;;;18.40;13.90;;;;;;5094034;27;20066;-75
2021/08/11 01:22:46;;;;;;;10.35;5.88;;;18.30;14.40;;;;;;5093235;27;20051;-75
2021/08/11 01:25:39;;;;;;;9.20;5.72;;;18.20;14.70;;;;;;5088254;27;20574;-75
2021/08/11 01:28:42;;;;;;;12.80;6.10;;;18.20;15.00;;;;;;5111575;27;20051;-75
2021/08/11 01:31:48;;;;;;;8.82;5.35;;;18.20;15.10;;;;;;5073942;27;20672;-75
2021/08/11 01:34:43;;;;;;;9.63;5.25;;;18.00;16.50;;;;;;5109272;27;20039;-76
2021/08/11 01:37:37;;;;;;;7.88;5.88;;;17.80;19.40;;;;;;5090190;27;20048;-76
2021/08/11 01:40:29;;;;;;;9.38;5.90;;;17.70;20.30;;;;;;5094598;27;20085;-75
2021/08/11 01:43:24;;;;;;;8.05;5.70;;;17.80;20.40;;;;;;5088907;27;20139;-75
2021/08/11 01:46:15;;;;;;;9.15;5.22;;;17.80;20.40;;;;;;5090973;28;20082;-75
2021/08/11 01:49:09;;;;;;;11.32;6.07;;;17.80;20.40;;;;;;5093234;27;20154;-75
2021/08/11 01:52:01;;;;;;;9.38;5.93;;;17.60;21.20;;;;;;5110617;27;20506;-75
2021/08/11 01:54:51;;;;;;;8.07;5.38;;;17.60;21.50;;;;;;5107921;28;20045;-76
2021/08/11 01:57:44;;;;;;;12.52;5.68;;;17.50;22.20;;;;;;5089375;28;20514;-75
2021/08/11 02:00:34;;;;;;;7.10;5.72;;;17.40;22.80;;;;;;5090876;28;20047;-75
2021/08/11 02:03:27;;;;;;;10.38;5.95;;;17.50;22.70;;;;;;5087626;28;20043;-75
2021/08/11 02:06:17;;;;;;;8.70;5.80;;;17.50;22.80;;;;;;5086230;28;20040;-75
2021/08/11 02:09:18;;;;;;;9.20;5.85;;;17.50;22.60;;;;;;5088295;28;20402;-75
2021/08/11 02:12:10;;;;;;;8.95;5.97;;;17.50;22.40;;;;;;5092802;28;20657;-75
2021/08/11 02:14:59;;;;;;;10.02;6.13;;;17.50;21.90;;;;;;5087471;27;20043;-75
2021/08/11 02:17:48;;;;;;;8.65;5.32;;;17.50;22.30;;;;;;5094681;27;20054;-75
2021/08/11 02:20:37;;;;;;;10.15;5.70;;;17.50;22.20;;;;;;5087486;27;20059;-75
2021/08/11 02:23:26;;;;;;;9.52;5.85;;;17.50;22.40;;;;;;5099044;27;20151;-75
2021/08/11 02:26:23;;;;;;;8.18;5.68;;;17.40;22.50;;;;;;5095539;27;20127;-75
2021/08/11 02:29:27;;;;;;;10.00;5.72;;;17.40;22.40;;;;;;5090826;27;20506;-75
2021/08/11 02:32:22;;;;;;;12.10;5.28;;;17.40;22.10;;;;;;5096668;27;20406;-76
2021/08/11 02:35:21;;;;;;;10.02;5.97;;;17.40;22.30;;;;;;5094505;27;20062;-76
2021/08/11 02:38:17;;;;;;;8.95;5.60;;;17.40;22.30;;;;;;5093607;27;20134;-76
2021/08/11 02:41:11;;;;;;;9.20;5.53;;;17.40;22.70;;;;;;5100204;27;20039;-76
2021/08/11 02:44:07;;;;;;;9.20;5.10;;;17.40;23.00;;;;;;5092428;28;20039;-76
2021/08/11 02:46:58;;;;;;;12.38;5.43;;;17.30;23.20;;;;;;5092380;27;20043;-76
2021/08/11 02:49:51;;;;;;;9.63;5.00;;;17.30;23.60;;;;;;5097424;27;20090;-76
2021/08/11 02:52:39;;;;;;;9.55;6.10;;;17.30;23.60;;;;;;5103750;27;20047;-75
2021/08/11 02:55:28;;;;;;;10.38;6.05;;;17.30;23.50;;;;;;5113350;27;20129;-75
2021/08/11 02:58:18;;;;;;;7.63;5.32;;;17.30;23.60;;;;;;5093235;27;20134;-75
2021/08/11 03:01:08;;;;;;;9.98;5.63;;;17.20;23.90;;;;;;5087414;27;20059;-75
2021/08/11 03:03:58;;;;;;;8.38;5.85;;;17.10;24.10;;;;;;5101841;27;20717;-75
2021/08/11 03:06:47;;;;;;;10.27;6.18;;;17.20;24.60;;;;;;5093475;27;20059;-75
2021/08/11 03:09:36;;;;;;;9.80;6.28;;;17.10;24.60;;;;;;5091744;28;20054;-74
2021/08/11 03:12:26;;;;;;;16.08;6.05;;;17.10;24.90;;;;;;5089347;28;20058;-75
2021/08/11 03:15:16;;;;;;;9.52;6.00;;;17.10;24.80;;;;;;5108276;28;20055;-74
2021/08/11 03:18:10;;;;;;;11.57;6.13;;;17.10;25.60;;;;;;5092707;28;20055;-74
2021/08/11 03:20:59;;;;;;;8.07;5.93;;;17.00;26.10;;;;;;5086561;28;20040;-75
2021/08/11 03:23:48;;;;;;;9.38;6.22;;;16.90;26.80;;;;;;5098551;28;20131;-74
2021/08/11 03:26:38;;;;;;;10.27;5.95;;;16.90;26.80;;;;;;5078802;28;20044;-75
2021/08/11 03:29:27;;;;;;;7.22;5.40;;;16.90;26.80;;;;;;5100837;28;20294;-75
2021/08/11 03:32:16;;;;;;;10.85;6.13;;;16.90;26.80;;;;;;5104338;28;20142;-72
2021/08/11 03:35:08;;;;;;;12.30;6.70;;;16.90;26.80;;;;;;5092754;28;20058;-75
2021/08/11 03:38:06;;;;;;;12.30;6.03;;;16.90;26.80;;;;;;5094135;28;20052;-75
2021/08/11 03:40:55;;;;;;;6.88;5.20;;;16.90;26.80;;;;;;5092003;28;20109;-74
2021/08/11 03:43:43;;;;;;;9.32;5.75;;;16.80;27.40;;;;;;5110994;28;20043;-74
2021/08/11 03:46:32;;;;;;;9.32;6.30;;;16.80;27.80;;;;;;5091538;27;20137;-74
2021/08/11 03:49:21;;;;;;;11.88;6.25;;;16.90;26.80;;;;;;5090817;28;20048;-74
2021/08/11 03:52:11;;;;;;;7.63;5.55;;;16.80;26.70;;;;;;5091040;28;20050;-74
2021/08/11 03:55:01;;;;;;;8.05;5.55;;;16.80;27.50;;;;;;5092223;28;20079;-74
2021/08/11 03:57:50;;;;;;;10.57;5.65;;;16.80;26.70;;;;;;5089050;28;20036;-74
2021/08/11 04:00:41;;;;;;;10.63;6.18;;;16.80;26.70;;;;;;5091426;28;20039;-74
2021/08/11 04:03:30;;;;;;;10.18;5.90;;;16.80;27.60;;;;;;5104848;28;20113;-74
2021/08/11 04:06:18;;;;;;;10.10;6.15;;;16.80;27.60;;;;;;5110725;27;20632;-74
2021/08/11 04:09:08;;;;;;;13.50;5.78;;;16.80;27.70;;;;;;5109278;27;20062;-74
2021/08/11 04:11:56;;;;;;;8.00;5.63;;;16.80;27.90;;;;;;5112203;27;20048;-75
2021/08/11 04:14:45;;;;;;;9.55;5.85;;;16.80;27.90;;;;;;5099474;27;20054;-73
2021/08/11 04:17:33;;;;;;;11.85;5.63;;;16.90;27.20;;;;;;5108172;27;20169;-73
2021/08/11 04:20:22;;;;;;;10.02;5.90;;;16.90;26.80;;;;;;5111390;27;20061;-73
2021/08/11 04:23:10;;;;;;;8.70;5.80;;;17.00;26.60;;;;;;5110241;27;20039;-74
2021/08/11 04:26:00;;;;;;;8.95;5.93;;;16.90;26.80;;;;;;5106270;27;20043;-74
2021/08/11 04:28:49;;;;;;;13.20;6.25;;;17.00;26.90;;;;;;5105612;27;20055;-74
2021/08/11 04:31:37;;;;;;;8.63;5.93;;;16.90;26.80;;;;;;5113312;27;20526;-75
2021/08/11 04:34:25;;;;;;;7.93;5.43;;;16.90;26.80;;;;;;5099089;27;20044;-72
2021/08/11 04:37:14;;;;;;;7.50;5.80;;;16.90;26.80;;;;;;5106972;27;20414;-73
2021/08/11 04:40:04;;;;;;;9.15;5.45;;;17.30;24.90;;;;;;5106432;27;20059;-73
2021/08/11 04:42:54;;;;;;;7.63;4.93;;;18.20;17.80;;;;;;5108500;27;20140;-73
2021/08/11 04:45:43;;;;;;;11.65;4.72;;;18.30;14.50;;;;;;5103992;27;20703;-73
2021/08/11 04:48:32;;;;;;;6.35;4.95;;;18.40;12.00;;;;;;5105647;27;20069;-73
2021/08/11 04:51:21;;;;;;;10.40;5.07;;;19.00;10.20;;;;;;5110568;27;20268;-75
2021/08/11 04:54:09;;;;;;;9.50;5.85;;;19.50;6.80;;;;;;5107302;27;20411;-74
2021/08/11 04:56:58;;;;;;;8.02;4.57;;;19.80;5.50;;;;;;5104069;27;20119;-74
2021/08/11 04:59:48;;;;;;;8.60;4.80;;;19.90;3.20;;;;;;5106372;27;20062;-74
2021/08/11 05:02:37;;;;;;;7.28;4.40;;;19.50;2.10;;;;;;5114098;27;20565;-73
2021/08/11 05:05:26;;;;;;;9.25;4.47;;;20.40;1.00;;;;;;5108356;27;20044;-72
2021/08/11 05:08:15;;;;;;;8.20;4.25;;;20.30;1.00;;;;;;5105936;27;20043;-73
2021/08/11 05:11:03;;;;;;;6.22;4.63;;;20.90;1.00;;;;;;5112501;27;20044;-73
2021/08/11 05:13:52;;;;;;;8.63;4.55;;;21.20;1.00;;;;;;5110707;27;20494;-74
2021/08/11 05:16:41;;;;;;;8.82;5.18;;;21.70;1.00;;;;;;5100015;27;20059;-75
2021/08/11 05:19:30;;;;;;;9.65;4.63;;;22.30;1.00;;;;;;5098436;27;20521;-74
2021/08/11 05:22:19;;;;;;;7.63;5.50;;;21.20;1.00;;;;;;5113105;27;20051;-74
2021/08/11 05:25:08;;;;;;;6.38;4.53;;;20.50;1.00;;;;;;5108243;27;20047;-74
2021/08/11 05:27:57;;;;;;;8.25;5.07;;;21.00;1.00;;;;;;5115947;27;20057;-74
2021/08/11 05:30:45;;;;;;;6.32;5.10;;;21.30;1.00;;;;;;5113856;27;20050;-74
2021/08/11 05:33:35;;;;;;;9.65;5.32;;;21.30;1.00;;;;;;5108129;27;20074;-74
2021/08/11 05:36:23;;;;;;;9.95;5.30;;;21.60;1.00;;;;;;5105445;27;20051;-74
2021/08/11 05:39:12;;;;;;;10.48;5.63;;;22.20;1.00;;;;;;5111728;27;20385;-73
2021/08/11 05:42:00;;;;;;;7.10;5.35;;;21.80;1.00;;;;;;5116098;27;20042;-73
2021/08/11 05:44:50;;;;;;;7.55;4.50;;;21.50;1.00;;;;;;5104676;27;20047;-73
2021/08/11 05:47:38;;;;;;;7.65;5.10;;;22.10;1.00;;;;;;5102275;27;20059;-73
2021/08/11 05:50:28;;;;;;;7.68;4.72;;;22.00;1.00;;;;;;5107651;27;20039;-74
2021/08/11 05:53:17;;;;;;;15.95;5.20;;;21.40;1.00;;;;;;5111243;27;20051;-73
2021/08/11 05:56:05;;;;;;;9.02;5.35;;;20.00;1.00;;;;;;5105967;27;20047;-74
2021/08/11 05:58:54;;;;;;;7.28;4.65;;;19.90;1.70;;;;;;5106087;28;20043;-74
2021/08/11 06:01:42;;;;;;;8.77;5.30;;;19.80;2.20;;;;;;5105106;28;20501;-74
2021/08/11 06:04:31;;;;;;;7.53;5.25;;;19.60;3.10;;;;;;5082533;28;20044;-73
2021/08/11 06:07:21;;;;;;;7.38;4.82;;;19.50;4.00;;;;;;5107330;28;20119;-74
2021/08/11 06:10:10;;;;;;;6.78;5.00;;;19.70;4.40;;;;;;5104174;28;20044;-73
2021/08/11 06:12:59;;;;;;;10.27;5.20;;;19.80;3.20;;;;;;5085094;28;20047;-74
2021/08/11 06:15:47;;;;;;;10.40;5.40;;;20.10;3.10;;;;;;5099369;28;20051;-74
2021/08/11 06:18:35;;;;;;;8.70;5.20;;;20.00;2.70;;;;;;5099743;28;20036;-73
2021/08/11 06:21:24;;;;;;;8.95;4.80;;;20.00;2.70;;;;;;5104170;28;20055;-74
2021/08/11 06:24:14;;;;;;;11.00;4.82;;;20.40;2.20;;;;;;5102134;28;20043;-74
2021/08/11 06:27:03;;;;;;;13.60;4.95;;;20.70;1.00;;;;;;5101707;28;20035;-75
2021/08/11 06:29:51;;;;;;;9.63;5.47;;;20.80;1.00;;;;;;5103855;28;20043;-73
2021/08/11 06:32:40;;;;;;;8.38;5.00;;;20.80;1.00;;;;;;5115173;28;20039;-73
2021/08/11 06:35:28;;;;;;;10.13;4.55;;;21.00;1.00;;;;;;5106093;27;20056;-74
2021/08/11 06:38:17;;;;;;;8.35;4.53;;;21.40;1.00;;;;;;5105937;28;20044;-74
2021/08/11 06:41:07;;;;;;;6.85;4.20;;;21.50;1.00;;;;;;5111511;28;20042;-74
2021/08/11 06:43:58;;;;;;;8.90;4.55;;;21.60;1.00;;;;;;5088309;28;20047;-74
2021/08/11 06:46:47;;;;;;;6.82;4.15;;;21.50;1.00;;;;;;5089267;28;20439;-74
2021/08/11 06:49:35;;;;;;;8.32;5.07;;;21.80;1.00;;;;;;5090593;28;20061;-74
2021/08/11 06:52:24;;;;;;;7.47;4.93;;;21.80;1.00;;;;;;5114934;28;20054;-73
2021/08/11 06:55:14;;;;;;;8.68;4.97;;;21.60;1.00;;;;;;5103286;28;20405;-74
2021/08/11 06:58:05;;;;;;;10.75;4.90;;;21.40;1.00;;;;;;5103036;28;20453;-74
2021/08/11 07:00:56;;;;;;;9.68;4.30;;;21.60;1.00;;;;;;5115039;27;20078;-74
2021/08/11 07:03:44;;;;;;;8.65;4.25;;;22.00;1.00;;;;;;5109840;27;20051;-73
2021/08/11 07:06:33;;;;;;;5.97;4.68;;;22.30;1.00;;;;;;5105755;27;20031;-73
2021/08/11 07:09:22;;;;;;;10.82;4.53;;;22.10;1.00;;;;;;5112519;27;20050;-73
2021/08/11 07:12:11;;;;;;;6.68;4.40;;;22.10;1.00;;;;;;5115927;27;20050;-74
2021/08/11 07:15:01;;;;;;;10.40;5.30;;;22.10;1.00;;;;;;5112019;27;20051;-74
2021/08/11 07:17:51;;;;;;;8.93;4.78;;;22.30;1.00;;;;;;5109557;27;20252;-74
2021/08/11 07:20:39;;;;;;;7.63;4.80;;;22.10;1.00;;;;;;5109490;27;20047;-74
2021/08/11 07:23:27;;;;;;;11.57;5.03;;;22.00;1.00;;;;;;5112809;27;20415;-74
2021/08/11 07:26:18;;;;;;;8.70;4.57;;;22.50;1.00;;;;;;5113382;27;20051;-74
2021/08/11 07:29:06;;;;;;;10.88;4.85;;;22.60;1.00;;;;;;5107247;27;20363;-74
2021/08/11 07:31:56;;;;;;;6.30;4.30;;;22.50;1.00;;;;;;5109462;27;20446;-74
2021/08/11 07:34:45;;;;;;;7.78;4.43;;;23.10;1.00;;;;;;5109074;27;20506;-73
2021/08/11 07:37:34;;;;;;;8.60;4.55;;;23.10;1.00;;;;;;5106439;27;20538;-74
2021/08/11 07:40:24;;;;;;;11.25;4.60;;;23.40;1.00;;;;;;5098857;27;20051;-74
2021/08/11 07:43:12;;;;;;;10.35;4.57;;;23.30;1.00;;;;;;5107362;27;20423;-74
2021/08/11 07:46:00;;;;;;;7.38;4.25;;;23.20;1.00;;;;;;5107351;27;20511;-74
2021/08/11 07:48:56;;;;;;;10.60;4.38;;;23.20;1.00;;;;;;5114569;27;20127;-74
2021/08/11 07:51:45;;;;;;;6.80;4.43;;;22.90;1.00;;;;;;5110861;27;20104;-74
2021/08/11 07:54:33;;;;;;;10.02;4.07;;;23.20;1.00;;;;;;5110686;27;20047;-74
2021/08/11 07:57:22;;;;;;;6.22;4.40;;;23.60;1.00;;;;;;5107638;27;20456;-74
2021/08/11 08:00:16;;;;;;;7.38;4.25;;;23.10;1.00;;;;;;5115220;27;20050;-74
2021/08/11 08:03:04;;;;;;;7.78;4.47;;;23.40;1.00;;;;;;5112700;27;20047;-73
2021/08/11 08:05:57;;;;;;;6.70;4.10;;;23.30;1.00;;;;;;5111082;27;20051;-74
2021/08/11 08:08:46;;;;;;;5.78;3.90;;;23.60;1.00;;;;;;5108824;27;20043;-74
2021/08/11 08:11:34;;;;;;;5.85;4.05;;;24.10;1.00;;;;;;5106639;27;20082;-74
2021/08/11 08:14:23;;;;;;;5.97;4.20;;;24.40;1.00;;;;;;5106158;27;20478;-74
2021/08/11 08:17:11;;;;;;;9.18;4.53;;;24.40;1.00;;;;;;5103895;27;20102;-74
2021/08/11 08:20:00;;;;;;;6.13;3.80;;;24.20;1.00;;;;;;5108273;27;20051;-74
2021/08/11 08:22:51;;;;;;;7.93;3.72;;;24.30;1.00;;;;;;5110083;27;20513;-75
2021/08/11 08:25:40;;;;;;;7.15;3.95;;;24.60;1.00;;;;;;5105108;27;20567;-74
2021/08/11 08:28:28;;;;;;;8.85;4.97;;;24.60;1.00;;;;;;5113315;27;20425;-74
2021/08/11 08:31:16;;;;;;;6.72;3.70;;;23.40;1.00;;;;;;5109115;27;20125;-75
2021/08/11 08:34:05;;;;;;;6.68;3.88;;;23.80;1.00;;;;;;5108588;27;20123;-74
2021/08/11 08:36:53;;;;;;;5.70;3.65;;;24.30;1.00;;;;;;5111536;27;20039;-74
2021/08/11 08:39:43;;;;;;;9.32;4.20;;;24.60;1.00;;;;;;5115397;27;20061;-73
2021/08/11 08:42:32;;;;;;;5.97;4.07;;;24.50;1.00;;;;;;5109332;27;20194;-75
2021/08/11 08:45:20;;;;;;;8.45;3.70;;;24.60;1.00;;;;;;5103670;27;20384;-75
2021/08/11 08:48:08;;;;;;;8.15;3.58;;;24.50;1.00;;;;;;5107256;27;20047;-74
2021/08/11 08:50:58;;;;;;;9.48;4.05;;;24.50;1.00;;;;;;5116731;27;20043;-74
2021/08/11 08:53:48;;;;;;;4.97;3.45;;;24.90;1.00;;;;;;5112610;27;20514;-75
2021/08/11 08:56:39;;;;;;;7.45;4.22;;;25.10;1.00;;;;;;5103094;27;20130;-73
2021/08/11 08:59:28;;;;;;;7.45;4.10;;;25.00;1.00;;;;;;5108101;27;20055;-75
2021/08/11 09:02:16;;;;;;;8.48;4.10;;;25.30;1.00;;;;;;5112484;27;20051;-74
2021/08/11 09:05:06;;;;;;;9.52;4.25;;;25.50;1.00;;;;;;5113777;27;20128;-73
2021/08/11 09:07:54;;;;;;;7.03;4.97;;;24.30;1.00;;;;;;5108641;27;22873;-75
2021/08/11 09:10:43;;;;;;;6.82;3.60;;;24.60;1.00;;;;;;5110311;27;20039;-74
2021/08/11 09:13:33;;;;;;;7.97;4.22;;;24.60;1.00;;;;;;5108492;27;20043;-75
2021/08/11 09:16:21;;;;;;;10.45;4.03;;;25.10;1.00;;;;;;5092556;27;20043;-74
2021/08/11 09:19:10;;;;;;;4.28;3.50;;;24.40;1.00;;;;;;5111099;27;20043;-73
2021/08/11 09:22:00;;;;;;;5.28;3.75;;;25.30;1.00;;;;;;5111759;27;20059;-75
2021/08/11 09:25:02;;;;;;;8.27;3.80;;;25.80;1.00;;;;;;5105160;27;20166;-75
2021/08/11 09:27:51;;;;;;;8.35;3.90;;;25.30;1.00;;;;;;5110332;27;20047;-74
2021/08/11 09:30:41;;;;;;;5.28;3.45;;;25.50;1.00;;;;;;5108652;27;20051;-74
2021/08/11 09:33:34;;;;;;;5.95;3.65;;;25.70;1.00;;;;;;5109577;27;20073;-74
2021/08/11 09:36:23;;;;;;;8.18;3.85;;;25.90;1.00;;;;;;5084677;27;20074;-73
2021/08/11 09:39:12;;;;;;;6.05;3.90;;;26.10;1.00;;;;;;5105851;28;20066;-74
2021/08/11 09:42:03;;;;;;;6.82;3.83;;;26.40;1.00;;;;;;5115041;27;20047;-74
2021/08/11 09:44:59;;;;;;;4.30;3.17;;;26.40;1.00;;;;;;5108779;27;20528;-74
2021/08/11 09:48:01;;;;;;;5.65;3.53;;;26.40;1.00;;;;;;5109961;27;20058;-74
2021/08/11 09:50:55;;;;;;;6.60;3.83;;;26.30;1.00;;;;;;5106464;27;20035;-74
2021/08/11 09:53:45;;;;;;;5.57;3.90;;;26.30;1.00;;;;;;5110940;27;20044;-74
2021/08/11 09:56:35;;;;;;;7.05;4.00;;;25.80;1.00;;;;;;5103567;28;20046;-74
2021/08/11 09:59:24;;;;;;;6.22;3.30;;;26.60;1.00;;;;;;5109872;27;20054;-73
2021/08/11 10:02:17;;;;;;;6.38;3.60;;;27.30;1.00;;;;;;5105988;28;20044;-74
2021/08/11 10:05:10;;;;;;;6.90;3.05;;;27.30;1.00;;;;;;5088001;28;20058;-73
2021/08/11 10:07:58;;;;;;;7.60;3.35;;;27.10;1.00;;;;;;5100800;28;20047;-74
2021/08/11 10:10:48;;;;;;;7.97;3.58;;;27.00;1.00;;;;;;5106083;28;20067;-74
2021/08/11 10:13:41;;;;;;;3.45;2.72;;;27.00;1.00;;;;;;5106418;28;20505;-74
2021/08/11 10:16:30;;;;;;;6.75;3.30;;;27.10;1.00;;;;;;5107915;28;20062;-73
2021/08/11 10:19:22;;;;;;;3.70;3.30;;;26.50;1.00;;;;;;5109782;27;20052;-74
2021/08/11 10:22:14;;;;;;;4.15;2.90;;;25.90;1.00;;;;;;5112232;28;20085;-74
2021/08/11 10:25:04;;;;;;;5.95;3.13;;;26.20;1.00;;;;;;5080298;28;20071;-73
2021/08/11 10:27:52;;;;;;;5.00;3.53;;;26.10;1.00;;;;;;5103221;27;20046;-75
2021/08/11 10:30:41;;;;;;;5.55;3.72;;;26.30;1.00;;;;;;5107209;28;20495;-73
2021/08/11 10:33:30;;;;;;;5.47;3.35;;;26.20;1.00;;;;;;5106731;28;20047;-74
2021/08/11 10:36:19;;;;;;;4.90;3.38;;;26.50;1.00;;;;;;5110444;27;20047;-74
2021/08/11 10:39:09;;;;;;;5.82;3.20;;;26.50;1.00;;;;;;5115805;27;20051;-74
2021/08/11 10:42:00;;;;;;;5.10;3.08;;;26.10;1.00;;;;;;5113650;27;20047;-73
2021/08/11 10:44:58;;;;;;;8.05;3.45;;;26.10;1.00;;;;;;5110316;27;20093;-74
2021/08/11 10:47:46;;;;;;;5.93;3.38;;;25.80;1.00;;;;;;5111747;27;20169;-74
2021/08/11 10:50:42;;;;;;;7.78;3.75;;;25.80;1.00;;;;;;5112003;27;20054;-73
2021/08/11 10:53:32;;;;;;;4.90;3.58;;;25.70;1.00;;;;;;5113933;27;20473;-74
2021/08/11 10:56:43;;;;;;;5.35;3.33;;;25.50;1.00;;;;;;5107879;27;20049;-74
2021/08/11 10:59:53;;;;;;;6.88;3.80;;;25.40;1.00;;;;;;5097729;27;20048;-75
2021/08/11 11:02:48;;;;;;;12.98;3.80;;;25.00;1.00;;;;;;5109163;27;20049;-75
2021/08/11 11:06:05;;;;;;;5.78;3.55;;;24.90;1.00;;;;;;5108967;27;20043;-75
2021/08/11 11:09:15;;;;;;;;;;;25.00;1.00;;;;;;5108530;27;20142;-74
2021/08/11 11:12:38;;;;;;;6.68;3.70;;;25.70;1.00;;;;;;5112589;27;19972;-75
2021/08/11 11:15:52;;;;;;;7.45;3.78;;;26.10;1.00;;;;;;5111438;27;20039;-75
2021/08/11 11:19:06;;;;;;;7.65;3.90;;;26.30;1.00;;;;;;5111481;27;20055;-75
2021/08/11 11:21:55;;;;;;;5.82;3.70;;;26.60;1.00;;;;;;5112407;27;20517;-74
2021/08/11 11:24:51;;;;;;;4.22;3.30;;;26.80;1.00;;;;;;5108572;27;20047;-74
2021/08/11 11:27:57;;;;;;;5.20;3.10;;;26.80;1.00;;;;;;5109847;27;20134;-74
2021/08/11 11:30:45;;;;;;;5.35;2.72;;;27.00;1.00;;;;;;5110723;27;20044;-74
2021/08/11 11:33:34;;;;;;;9.13;3.20;;;26.90;1.00;;;;;;5109278;27;20079;-75
2021/08/11 11:36:25;;;;;;;5.00;2.78;;;26.20;1.00;;;;;;5113941;27;20054;-75
2021/08/11 11:39:14;;;;;;;3.72;2.97;;;26.70;1.00;;;;;;5106623;27;20047;-75
2021/08/11 11:42:25;;;;;;;5.65;2.90;;;26.30;1.00;;;;;;5106921;27;20047;-76
2021/08/11 11:45:46;;;;;;;6.50;3.22;;;27.50;1.00;;;;;;5104599;27;20058;-75
2021/08/11 11:48:34;;;;;;;3.40;2.85;;;27.60;1.00;;;;;;5101846;27;20032;-75
2021/08/11 11:51:25;;;;;;;4.93;3.15;;;27.30;1.00;;;;;;5109442;27;20071;-76
2021/08/11 11:54:14;;;;;;;6.25;2.97;;;26.80;1.00;;;;;;5084310;27;20600;-75
2021/08/11 11:57:02;;;;;;;5.20;2.95;;;26.10;1.00;;;;;;5103985;27;20503;-75
2021/08/11 11:59:51;;;;;;;3.55;3.03;;;26.20;1.00;;;;;;5108299;27;20044;-75
2021/08/11 12:02:43;;;;;;;8.43;3.03;;;26.60;1.00;;;;;;5110191;27;20039;-73
2021/08/11 12:05:45;;;;;;;5.20;2.95;;;27.30;1.00;;;;;;5108162;27;20122;-75
2021/08/11 12:08:33;;;;;;;4.88;2.92;;;27.70;1.00;;;;;;5107179;27;20051;-74
2021/08/11 12:11:27;;;;;;;7.55;3.17;;;27.10;1.00;;;;;;5109910;27;20083;-75
2021/08/11 12:14:25;;;;;;;6.65;3.28;;;26.50;1.00;;;;;;5095309;27;20979;-73
2021/08/11 12:17:27;;;;;;;3.78;2.90;;;26.50;1.00;;;;;;5107608;27;20043;-75
2021/08/11 12:20:28;;;;;;;5.15;3.03;;;27.10;1.00;;;;;;5104235;27;20093;-74
2021/08/11 12:23:19;;;;;;;5.30;2.83;;;27.40;1.00;;;;;;5112415;27;20536;-75
2021/08/11 12:26:13;;;;;;;3.67;2.40;;;27.10;1.00;;;;;;5108299;27;20058;-75
2021/08/11 12:29:02;;;;;;;;;;;27.20;1.00;;;;;;5090831;27;20052;-75
2021/08/11 12:31:51;;;;;;;3.95;2.67;;;27.30;1.00;;;;;;5107631;27;20418;-74
2021/08/11 12:34:41;;;;;;;4.97;2.70;;;27.20;1.00;;;;;;5113405;27;20462;-74
2021/08/11 12:37:30;;;;;;;3.40;2.30;;;27.40;1.00;;;;;;5109004;27;20158;-74
2021/08/11 12:40:28;;;;;;;8.15;2.75;;;27.20;1.00;;;;;;5096579;28;20055;-74
2021/08/11 12:43:17;;;;;;;6.32;2.88;;;28.00;1.00;;;;;;5086200;28;20051;-74
2021/08/11 12:46:08;;;;;;;5.55;2.78;;;27.00;1.00;;;;;;5104513;27;20135;-74
2021/08/11 12:49:19;;;;;;;4.57;2.65;;;27.40;1.00;;;;;;5099453;28;20409;-74
2021/08/11 12:52:18;;;;;;;3.35;2.58;;;27.00;1.00;;;;;;5108390;27;20039;-73
2021/08/11 12:55:12;;;;;;;3.15;2.40;;;27.30;1.00;;;;;;5110685;27;20048;-73
2021/08/11 12:58:01;;;;;;;5.10;2.45;;;27.80;1.00;;;;;;5102884;27;20040;-74
2021/08/11 13:00:54;;;;;;;4.05;2.47;;;27.20;1.00;;;;;;5089016;27;20046;-73
2021/08/11 13:03:45;;;;;;;7.70;3.20;;;27.30;1.00;;;;;;5107917;27;20093;-73
2021/08/11 13:06:39;;;;;;;2.95;2.58;;;27.80;1.00;;;;;;5110285;27;20089;-75
2021/08/11 13:09:29;;;;;;;4.60;2.90;;;27.80;1.00;;;;;;5099804;27;20048;-74
2021/08/11 13:12:29;;;;;;;3.85;2.50;;;27.30;1.00;;;;;;5107390;27;20054;-73
2021/08/11 13:15:23;;;;;;;5.05;2.90;;;27.40;1.00;;;;;;5107008;27;20508;-74
2021/08/11 13:18:24;;;;;;;4.15;2.88;;;27.80;1.00;;;;;;5107179;27;20115;-74
2021/08/11 13:21:12;;;;;;;4.95;3.05;;;26.90;1.00;;;;;;5110426;27;20051;-74
2021/08/11 13:24:01;;;;;;;3.00;2.42;;;27.10;1.00;;;;;;5110048;27;20046;-74
2021/08/11 13:26:54;;;;;;;5.70;2.75;;;27.20;1.00;;;;;;5105417;27;20292;-74
2021/08/11 13:29:44;;;;;;;4.13;2.80;;;27.40;1.00;;;;;;5104883;27;20051;-74
2021/08/11 13:32:33;;;;;;;5.68;3.00;;;28.00;1.00;;;;;;5108951;27;20062;-75
2021/08/11 13:35:26;;;;;;;9.18;3.05;;;28.00;1.00;;;;;;5115368;27;20047;-75
2021/08/11 13:38:15;;;;;;;4.07;2.80;;;28.20;1.00;;;;;;5103867;27;20039;-75
2021/08/11 13:41:03;;;;;;;5.03;2.60;;;27.70;1.00;;;;;;5109218;27;20039;-75
2021/08/11 13:43:51;;;;;;;4.72;2.85;;;27.30;1.00;;;;;;5111688;27;20608;-74
2021/08/11 13:46:41;;;;;;;5.50;3.13;;;27.40;1.00;;;;;;5101814;27;20063;-75
2021/08/11 13:49:30;;;;;;;5.38;2.95;;;27.20;1.00;;;;;;5105794;27;20062;-74
2021/08/11 13:52:19;;;;;;;3.95;2.92;;;27.60;1.00;;;;;;5094844;28;20062;-73
2021/08/11 13:55:08;;;;;;;4.85;2.97;;;27.60;1.00;;;;;;5107933;27;20047;-75
2021/08/11 13:57:57;;;;;;;4.80;3.00;;;27.90;1.00;;;;;;5083561;28;20027;-75
2021/08/11 14:00:45;;;;;;;5.75;3.08;;;27.90;1.00;;;;;;5103918;28;20166;-75
2021/08/11 14:03:35;;;;;;;3.17;2.78;;;27.40;1.00;;;;;;5099534;28;20051;-74
2021/08/11 14:06:24;;;;;;;5.90;2.88;;;27.60;1.00;;;;;;5098376;28;20043;-74
2021/08/11 14:09:12;;;;;;;4.45;2.75;;;27.00;1.00;;;;;;5100112;28;20051;-73
2021/08/11 14:12:01;;;;;;;4.82;2.85;;;27.10;1.00;;;;;;5104113;28;20039;-74
2021/08/11 14:14:50;;;;;;;6.47;3.35;;;27.60;1.00;;;;;;5106034;28;20047;-74
2021/08/11 14:17:39;;;;;;;3.35;2.72;;;27.40;1.00;;;;;;5102980;28;20050;-74
2021/08/11 14:20:29;;;;;;;3.65;2.92;;;27.50;1.00;;;;;;5106839;28;20082;-74
2021/08/11 14:23:17;;;;;;;3.97;2.90;;;27.30;1.00;;;;;;5106530;28;20050;-74
2021/08/11 14:26:05;;;;;;;4.85;2.80;;;27.30;1.00;;;;;;5105187;28;20047;-73
2021/08/11 14:28:54;;;;;;;3.45;2.80;;;27.80;1.00;;;;;;5107943;27;20080;-74
2021/08/11 14:31:43;;;;;;;5.05;3.33;;;28.10;1.00;;;;;;5106599;28;20421;-74
2021/08/11 14:34:31;;;;;;;4.68;3.38;;;28.00;1.00;;;;;;5106934;28;20375;-75
2021/08/11 14:37:21;;;;;;;4.47;3.00;;;28.40;1.00;;;;;;5103908;28;20051;-74
2021/08/11 14:40:14;;;;;;;5.03;3.47;;;27.80;1.00;;;;;;5107398;27;20132;-74
2021/08/11 14:43:03;;;;;;;6.55;3.50;;;28.00;1.00;;;;;;5107616;27;20628;-75
2021/08/11 14:45:54;;;;;;;4.50;3.22;;;28.00;1.00;;;;;;5094543;28;20047;-75
2021/08/11 14:48:43;;;;;;;4.03;3.30;;;27.90;1.00;;;;;;5104172;27;20128;-73
2021/08/11 14:51:31;;;;;;;4.30;2.83;;;28.00;1.00;;;;;;5086569;28;20419;-74
2021/08/11 14:54:21;;;;;;;6.10;2.92;;;28.10;1.00;;;;;;5115539;27;20051;-73
2021/08/11 14:57:10;;;;;;;5.20;3.20;;;27.50;1.00;;;;;;5103860;27;20323;-73